createdAt,value
2022-09-16T00:01:00.247Z,98767.69
2022-09-16T00:03:29.475Z,98779.63
2022-09-16T00:05:57.290Z,98768.88
2022-09-16T00:08:25.084Z,98773.19
2022-09-16T00:10:53.054Z,98782.59
2022-09-16T00:13:21.175Z,98784.31
2022-09-16T00:15:51.845Z,98773.41
2022-09-16T00:18:20.298Z,98776.03
2022-09-16T00:20:51.291Z,98776.06
2022-09-16T00:23:20.537Z,98779.78
2022-09-16T00:25:52.975Z,98785.13
2022-09-16T00:28:21.668Z,98778.59
2022-09-16T00:30:49.701Z,98783.72
2022-09-16T00:33:17.683Z,98782.13
2022-09-16T00:35:45.491Z,98775.50
2022-09-16T00:38:14.912Z,98772.16
2022-09-16T00:40:47.263Z,98770.59
2022-09-16T00:43:16.171Z,98766.41
2022-09-16T00:45:47.712Z,98774.78
2022-09-16T00:48:22.166Z,98783.91
2022-09-16T00:50:52.194Z,98788.84
2022-09-16T00:53:24.681Z,98788.94
2022-09-16T00:55:54.635Z,98798.28
2022-09-16T00:58:26.770Z,98805.91
2022-09-16T01:00:54.629Z,98805.03
2022-09-16T01:03:23.025Z,98812.56
2022-09-16T01:05:51.348Z,98816.66
2022-09-16T01:08:19.338Z,98819.13
2022-09-16T01:10:48.558Z,98827.69
2022-09-16T01:13:17.226Z,98806.91
2022-09-16T01:15:55.785Z,98825.41
2022-09-16T01:18:32.278Z,98838.88
2022-09-16T01:21:09.792Z,98832.06
2022-09-16T01:24:05.333Z,98826.97
2022-09-16T01:26:58.032Z,98822.91
2022-09-16T01:29:40.017Z,98818.69
2022-09-16T01:32:15.681Z,98831.19
2022-09-16T01:34:53.466Z,98817.75
2022-09-16T01:37:30.091Z,98820.25
2022-09-16T01:40:08.546Z,98824.31
2022-09-16T01:42:43.617Z,98825.94
2022-09-16T01:45:19.262Z,98825.88
2022-09-16T01:47:56.012Z,98813.25
2022-09-16T01:50:28.782Z,98813.25
2022-09-16T01:53:10.074Z,98812.44
2022-09-16T01:55:42.123Z,98809.94
2022-09-16T01:58:16.929Z,98806.59
2022-09-16T02:00:47.350Z,98812.47
2022-09-16T02:03:24.210Z,98807.44
2022-09-16T02:05:57.085Z,98811.69
2022-09-16T02:08:33.258Z,98819.19
2022-09-16T02:11:05.153Z,98809.22
2022-09-16T02:13:36.824Z,98814.34
2022-09-16T02:16:09.165Z,98821.94
2022-09-16T02:18:42.468Z,98823.66
2022-09-16T02:21:14.788Z,98825.41
2022-09-16T02:23:46.970Z,98831.31
2022-09-16T02:26:20.536Z,98836.44
2022-09-16T02:28:51.608Z,98843.25
2022-09-16T02:31:23.633Z,98838.22
2022-09-16T02:33:57.066Z,98834.06
2022-09-16T02:36:27.765Z,98829.06
2022-09-16T02:39:01.561Z,98831.69
2022-09-16T02:41:29.604Z,98833.38
2022-09-16T02:43:57.498Z,98831.72
2022-09-16T02:46:38.379Z,98829.28
2022-09-16T02:49:13.996Z,98830.19
2022-09-16T02:51:49.053Z,98833.53
2022-09-16T02:54:24.914Z,98831.00
2022-09-16T02:56:55.380Z,98825.94
2022-09-16T02:59:25.265Z,98832.66
2022-09-16T03:01:53.153Z,98826.78
2022-09-16T03:04:22.677Z,98834.34
2022-09-16T03:06:50.561Z,98835.22
2022-09-16T03:09:23.752Z,98840.28
2022-09-16T03:12:12.823Z,98837.78
2022-09-16T03:14:55.232Z,98836.09
2022-09-16T03:17:39.003Z,98836.13
2022-09-16T03:20:17.340Z,98829.50
2022-09-16T03:22:51.973Z,98823.66
2022-09-16T03:25:33.684Z,98821.16
2022-09-16T03:28:07.953Z,98822.06
2022-09-16T03:30:44.203Z,98822.00
2022-09-16T03:33:20.509Z,98824.47
2022-09-16T03:35:52.394Z,98811.91
2022-09-16T03:38:21.144Z,98825.28
2022-09-16T03:40:49.406Z,98818.56
2022-09-16T03:43:18.276Z,98820.25
2022-09-16T03:45:46.178Z,98825.31
2022-09-16T03:48:14.392Z,98838.72
2022-09-16T03:50:42.336Z,98840.41
2022-09-16T03:53:11.559Z,98842.06
2022-09-16T03:55:39.399Z,98838.72
2022-09-16T03:58:07.190Z,98840.41
2022-09-16T04:00:34.997Z,98842.09
2022-09-16T04:03:03.341Z,98842.94
2022-09-16T04:05:31.242Z,98846.34
2022-09-16T04:07:59.041Z,98838.81
2022-09-16T04:10:28.304Z,98846.41
2022-09-16T04:12:58.833Z,98848.16
2022-09-16T04:15:26.756Z,98841.50
2022-09-16T04:17:56.145Z,98849.97
2022-09-16T04:20:24.784Z,98849.13
2022-09-16T04:22:52.633Z,98846.56
2022-09-16T04:25:20.444Z,98852.44
2022-09-16T04:27:49.578Z,98848.25
2022-09-16T04:30:17.412Z,98849.09
2022-09-16T04:32:45.185Z,98856.66
2022-09-16T04:35:13.082Z,98855.78
2022-09-16T04:37:40.846Z,98848.25
2022-09-16T04:40:09.187Z,98854.97
2022-09-16T04:42:37.031Z,98854.09
2022-09-16T04:45:07.665Z,98852.44
2022-09-16T04:47:35.480Z,98852.44
2022-09-16T04:50:03.280Z,98852.47
2022-09-16T04:52:31.538Z,98848.31
2022-09-16T04:54:59.579Z,98860.81
2022-09-16T04:57:27.471Z,98870.00
2022-09-16T04:59:55.258Z,98880.91
2022-09-16T05:02:24.461Z,98876.66
2022-09-16T05:04:52.277Z,98877.47
2022-09-16T05:07:20.064Z,98880.03
2022-09-16T05:09:47.880Z,98886.75
2022-09-16T05:12:15.933Z,98881.72
2022-09-16T05:14:43.733Z,98878.31
2022-09-16T05:17:19.305Z,98870.78
2022-09-16T05:20:00.799Z,98870.78
2022-09-16T05:22:28.901Z,98856.59
2022-09-16T05:24:56.723Z,98855.78
2022-09-16T05:27:27.915Z,98848.22
2022-09-16T05:29:55.752Z,98843.06
2022-09-16T05:32:23.668Z,98846.34
2022-09-16T05:34:51.568Z,98852.19
2022-09-16T05:37:20.762Z,98855.44
2022-09-16T05:39:49.258Z,98858.06
2022-09-16T05:42:17.120Z,98856.50
2022-09-16T05:44:45.041Z,98855.59
2022-09-16T05:47:12.803Z,98852.28
2022-09-16T05:49:40.619Z,98854.81
2022-09-16T05:52:08.411Z,98852.31
2022-09-16T05:54:37.749Z,98848.16
2022-09-16T05:57:07.214Z,98864.94
2022-09-16T05:59:35.549Z,98858.19
2022-09-16T06:02:03.491Z,98859.81
2022-09-16T06:04:31.400Z,98846.31
2022-09-16T06:06:59.209Z,98855.53
2022-09-16T06:09:27.349Z,98849.63
2022-09-16T06:12:01.634Z,98860.50
2022-09-16T06:14:30.325Z,98863.00
2022-09-16T06:16:58.227Z,98857.94
2022-09-16T06:19:26.017Z,98856.16
2022-09-16T06:21:53.861Z,98853.63
2022-09-16T06:24:22.119Z,98867.13
2022-09-16T06:26:50.627Z,98855.38
2022-09-16T06:29:19.888Z,98854.47
2022-09-16T06:31:47.684Z,98852.75
2022-09-16T06:34:18.334Z,98856.94
2022-09-16T06:36:46.237Z,98860.28
2022-09-16T06:39:15.145Z,98846.72
2022-09-16T06:41:43.001Z,98844.94
2022-09-16T06:44:11.209Z,98841.50
2022-09-16T06:46:40.354Z,98849.00
2022-09-16T06:49:10.857Z,98850.66
2022-09-16T06:51:38.658Z,98849.72
2022-09-16T06:54:09.461Z,98837.91
2022-09-16T06:56:39.532Z,98840.41
2022-09-16T06:59:07.823Z,98847.94
2022-09-16T07:01:37.404Z,98852.91
2022-09-16T07:04:10.366Z,98856.19
2022-09-16T07:07:07.572Z,98864.63
2022-09-16T07:09:27.164Z,98866.31
2022-09-16T07:11:55.276Z,98856.22
2022-09-16T07:14:23.488Z,98858.69
2022-09-16T07:16:51.424Z,98867.09
2022-09-16T07:19:20.688Z,98869.56
2022-09-16T07:21:48.514Z,98878.78
2022-09-16T07:24:16.565Z,98873.78
2022-09-16T07:26:45.692Z,98862.88
2022-09-16T07:29:15.437Z,98857.81
2022-09-16T07:31:43.562Z,98869.59
2022-09-16T07:34:13.508Z,98870.41
2022-09-16T07:36:44.252Z,98871.19
2022-09-16T07:39:13.357Z,98867.09
2022-09-16T07:41:42.820Z,98868.78
2022-09-16T07:44:13.555Z,98875.41
2022-09-16T07:46:41.839Z,98875.34
2022-09-16T07:49:12.273Z,98871.03
2022-09-16T07:51:40.309Z,98881.03
2022-09-16T07:54:11.866Z,98875.06
2022-09-16T07:56:41.012Z,98875.03
2022-09-16T07:59:15.922Z,98867.34
2022-09-16T08:01:47.436Z,98874.03
2022-09-16T08:04:15.566Z,98877.34
2022-09-16T08:06:43.358Z,98867.19
2022-09-16T08:09:38.717Z,98872.22
2022-09-16T08:12:02.844Z,98861.19
2022-09-16T08:14:30.694Z,98861.16
2022-09-16T08:16:58.766Z,98859.47
2022-09-16T08:19:26.590Z,98861.16
2022-09-16T08:21:54.468Z,98862.84
2022-09-16T08:24:23.733Z,98872.97
2022-09-16T08:26:51.674Z,98863.69
2022-09-16T08:29:19.573Z,98859.41
2022-09-16T08:31:47.465Z,98876.97
2022-09-16T08:34:15.951Z,98869.25
2022-09-16T08:36:44.405Z,98859.91
2022-09-16T08:39:12.853Z,98864.78
2022-09-16T08:41:55.455Z,98865.59
2022-09-16T08:44:34.495Z,98871.34
2022-09-16T08:47:06.248Z,98868.56
2022-09-16T08:49:38.267Z,98874.19
2022-09-16T08:52:13.385Z,98866.41
2022-09-16T08:54:45.137Z,98872.03
2022-09-16T08:57:18.876Z,98873.69
2022-09-16T08:59:50.706Z,98869.41
2022-09-16T09:02:38.695Z,98864.22
2022-09-16T09:05:16.241Z,98855.00
2022-09-16T09:07:54.610Z,98853.06
2022-09-16T09:10:30.241Z,98851.22
2022-09-16T09:13:10.137Z,98848.25
2022-09-16T09:15:44.402Z,98850.41
2022-09-16T09:18:34.766Z,98848.47
2022-09-16T09:21:18.189Z,98854.88
2022-09-16T09:24:06.778Z,98862.22
2022-09-16T09:26:48.046Z,98852.94
2022-09-16T09:29:42.752Z,98843.22
2022-09-16T09:32:22.719Z,98844.75
2022-09-16T09:35:07.145Z,98840.66
2022-09-16T09:37:48.360Z,98816.22
2022-09-16T09:40:21.731Z,98841.22
2022-09-16T09:42:53.577Z,98841.97
2022-09-16T09:45:29.260Z,98829.28
2022-09-16T09:48:02.215Z,98838.56
2022-09-16T09:50:34.624Z,98856.28
2022-09-16T09:53:13.177Z,98843.72
2022-09-16T09:55:42.967Z,98838.03
2022-09-16T09:58:22.423Z,98848.19
2022-09-16T10:00:53.087Z,98852.34
2022-09-16T10:03:21.292Z,98829.97
2022-09-16T10:05:49.433Z,98836.38
2022-09-16T10:08:27.141Z,98846.75
2022-09-16T10:10:56.668Z,98851.16
2022-09-16T10:13:26.601Z,98842.44
2022-09-16T10:16:10.492Z,98847.59
2022-09-16T10:18:38.957Z,98847.06
2022-09-16T10:21:08.741Z,98859.00
2022-09-16T10:23:39.036Z,98839.31
2022-09-16T10:26:21.488Z,98859.34
2022-09-16T10:29:03.298Z,98851.66
2022-09-16T10:31:37.586Z,98839.03
2022-09-16T10:34:13.770Z,98847.63
2022-09-16T10:36:41.573Z,98849.34
2022-09-16T10:39:23.951Z,98841.91
2022-09-16T10:41:51.752Z,98842.84
2022-09-16T10:44:27.071Z,98839.63
2022-09-16T10:47:00.070Z,98845.78
2022-09-16T10:49:36.305Z,98836.22
2022-09-16T10:52:19.627Z,98828.53
2022-09-16T10:54:47.557Z,98838.63
2022-09-16T10:57:28.727Z,98848.06
2022-09-16T11:00:14.130Z,98838.88
2022-09-16T11:03:01.569Z,98841.47
2022-09-16T11:05:34.583Z,98836.72
2022-09-16T11:08:13.791Z,98846.34
2022-09-16T11:10:49.717Z,98842.44
2022-09-16T11:13:33.135Z,98850.38
2022-09-16T11:16:15.108Z,98843.66
2022-09-16T11:18:54.854Z,98846.00
2022-09-16T11:21:46.092Z,98835.56
2022-09-16T11:24:35.925Z,98835.25
2022-09-16T11:27:12.262Z,98833.25
2022-09-16T11:29:51.906Z,98843.13
2022-09-16T11:32:27.448Z,98857.53
2022-09-16T11:35:17.537Z,98845.00
2022-09-16T11:37:50.717Z,98836.53
2022-09-16T11:40:30.007Z,98832.56
2022-09-16T11:43:06.426Z,98826.63
2022-09-16T11:45:44.297Z,98834.13
2022-09-16T11:48:35.298Z,98825.16
2022-09-16T11:51:12.589Z,98821.97
2022-09-16T11:54:04.565Z,98829.00
2022-09-16T11:56:40.180Z,98821.78
2022-09-16T11:59:16.124Z,98812.34
2022-09-16T12:01:47.098Z,98818.16
2022-09-16T12:04:21.745Z,98822.41
2022-09-16T12:06:56.950Z,98828.13
2022-09-16T12:09:32.736Z,98806.66
2022-09-16T12:12:09.736Z,98828.19
2022-09-16T12:14:42.675Z,98821.97
2022-09-16T12:17:16.028Z,98806.50
2022-09-16T12:19:48.780Z,98814.06
2022-09-16T12:22:22.979Z,98809.91
2022-09-16T12:24:57.591Z,98818.38
2022-09-16T12:27:38.475Z,98804.28
2022-09-16T12:30:14.181Z,98799.47
2022-09-16T12:32:50.397Z,98801.94
2022-09-16T12:35:25.086Z,98794.97
2022-09-16T12:37:55.334Z,98794.06
2022-09-16T12:40:26.363Z,98786.53
2022-09-16T12:43:32.840Z,98777.38
2022-09-16T12:46:17.947Z,98771.56
2022-09-16T12:49:16.917Z,98772.41
2022-09-16T12:52:12.183Z,98761.63
2022-09-16T12:55:10.812Z,98757.56
2022-09-16T12:57:52.662Z,98758.47
2022-09-16T13:00:23.144Z,98754.94
2022-09-16T13:02:53.979Z,98765.09
2022-09-16T13:05:32.392Z,98762.72
2022-09-16T13:08:06.590Z,98767.94
2022-09-16T13:11:00.674Z,98774.81
2022-09-16T13:13:33.504Z,98780.63
2022-09-16T13:16:03.578Z,98777.41
2022-09-16T13:18:44.692Z,98768.28
2022-09-16T13:21:26.195Z,98770.03
2022-09-16T13:24:02.752Z,98766.69
2022-09-16T13:26:41.827Z,98772.38
2022-09-16T13:29:32.343Z,98781.53
2022-09-16T13:32:00.611Z,98773.19
2022-09-16T13:34:28.400Z,98775.88
2022-09-16T13:36:56.225Z,98780.88
2022-09-16T13:39:31.788Z,98779.94
2022-09-16T13:42:12.373Z,98772.34
2022-09-16T13:44:42.718Z,98771.53
2022-09-16T13:47:18.903Z,98775.81
2022-09-16T13:49:50.751Z,98738.28
2022-09-16T13:52:22.277Z,98765.13
2022-09-16T13:58:00.155Z,98751.50
2022-09-16T14:00:35.992Z,98759.81
2022-09-16T14:03:27.927Z,98754.81
2022-09-16T14:06:23.596Z,98748.16
2022-09-16T14:08:59.807Z,98749.81
2022-09-16T14:11:37.370Z,98749.06
2022-09-16T14:14:30.006Z,98746.75
2022-09-16T14:17:04.189Z,98753.34
2022-09-16T14:19:36.721Z,98747.28
2022-09-16T14:22:06.684Z,98735.09
2022-09-16T14:24:36.327Z,98729.84
2022-09-16T14:27:04.742Z,98724.50
2022-09-16T14:29:33.925Z,98740.50
2022-09-16T14:32:04.924Z,98737.34
2022-09-16T14:34:36.309Z,98731.78
2022-09-16T14:37:06.103Z,98722.06
2022-09-16T14:39:35.558Z,98728.84
2022-09-16T14:42:07.269Z,98728.97
2022-09-16T14:44:40.109Z,98725.72
2022-09-16T14:47:29.451Z,98727.47
2022-09-16T14:50:04.651Z,98724.06
2022-09-16T14:52:34.212Z,98724.75
2022-09-16T14:55:02.798Z,98731.38
2022-09-16T14:57:33.366Z,98745.00
2022-09-16T15:00:10.441Z,98732.63
2022-09-16T15:02:45.707Z,98730.19
2022-09-16T15:05:20.742Z,98732.91
2022-09-16T15:08:09.951Z,98723.75
2022-09-16T15:10:51.602Z,98723.00
2022-09-16T15:13:22.380Z,98720.59
2022-09-16T15:15:56.043Z,98719.81
2022-09-16T15:18:28.585Z,98695.53
2022-09-16T15:21:04.698Z,98697.97
2022-09-16T15:23:33.769Z,98680.22
2022-09-16T15:26:17.917Z,98682.63
2022-09-16T15:28:54.216Z,98698.41
2022-09-16T15:31:34.552Z,98701.72
2022-09-16T15:34:05.600Z,98707.59
2022-09-16T15:36:39.156Z,98713.53
2022-09-16T15:39:22.992Z,98717.84
2022-09-16T15:41:51.020Z,98715.41
2022-09-16T15:44:26.329Z,98712.09
2022-09-16T15:46:55.625Z,98705.34
2022-09-16T15:49:25.898Z,98697.84
2022-09-16T15:51:53.924Z,98686.25
2022-09-16T15:54:27.341Z,98703.94
2022-09-16T15:57:02.488Z,98695.44
2022-09-16T15:59:34.628Z,98698.88
2022-09-16T16:02:07.842Z,98683.88
2022-09-16T16:04:36.093Z,98678.91
2022-09-16T16:07:06.068Z,98691.56
2022-09-16T16:09:40.501Z,98695.88
2022-09-16T16:12:11.319Z,98690.84
2022-09-16T16:14:40.267Z,98686.66
2022-09-16T16:17:13.865Z,98682.50
2022-09-16T16:19:42.969Z,98677.44
2022-09-16T16:22:11.155Z,98674.03
2022-09-16T16:24:39.583Z,98674.03
2022-09-16T16:27:08.485Z,98658.31
2022-09-16T16:29:36.652Z,98682.50
2022-09-16T16:32:08.084Z,98682.53
2022-09-16T16:34:39.099Z,98669.97
2022-09-16T16:37:08.480Z,98675.88
2022-09-16T16:39:36.695Z,98681.00
2022-09-16T16:42:05.874Z,98667.66
2022-09-16T16:44:34.444Z,98666.00
2022-09-16T16:47:02.685Z,98677.75
2022-09-16T16:49:30.581Z,98674.41
2022-09-16T16:51:59.725Z,98668.53
2022-09-16T16:54:28.863Z,98669.44
2022-09-16T16:56:57.036Z,98659.41
2022-09-16T16:59:26.320Z,98664.44
2022-09-16T17:01:55.575Z,98662.78
2022-09-16T17:04:24.884Z,98659.44
2022-09-16T17:07:08.518Z,98663.66
2022-09-16T17:09:42.313Z,98665.47
2022-09-16T17:12:10.637Z,98672.16
2022-09-16T17:14:38.775Z,98672.16
2022-09-16T17:17:06.861Z,98673.03
2022-09-16T17:19:34.653Z,98679.78
2022-09-16T17:22:02.525Z,98672.19
2022-09-16T17:24:30.546Z,98679.78
2022-09-16T17:27:00.197Z,98684.81
2022-09-16T17:29:28.288Z,98680.56
2022-09-16T17:31:57.013Z,98678.91
2022-09-16T17:34:26.260Z,98680.63
2022-09-16T17:36:55.059Z,98682.31
2022-09-16T17:39:23.394Z,98677.44
2022-09-16T17:41:51.460Z,98673.16
2022-09-16T17:44:20.693Z,98680.75
2022-09-16T17:46:48.759Z,98679.09
2022-09-16T17:49:18.408Z,98676.59
2022-09-16T17:51:46.673Z,98683.38
2022-09-16T17:54:14.749Z,98684.28
2022-09-16T17:56:43.518Z,98693.53
2022-09-16T17:59:12.261Z,98695.22
2022-09-16T18:01:41.552Z,98694.34
2022-09-16T18:04:09.386Z,98694.38
2022-09-16T18:06:42.070Z,98686.81
2022-09-16T18:09:09.907Z,98686.81
2022-09-16T18:11:39.027Z,98686.91
2022-09-16T18:14:08.880Z,98685.25
2022-09-16T18:16:36.755Z,98708.81
2022-09-16T18:19:06.286Z,98708.00
2022-09-16T18:21:34.508Z,98709.69
2022-09-16T18:24:03.840Z,98703.78
2022-09-16T18:26:32.756Z,98702.13
2022-09-16T18:29:10.015Z,98714.78
2022-09-16T18:31:39.400Z,98706.56
2022-09-16T18:34:08.936Z,98720.00
2022-09-16T18:36:39.043Z,98721.81
2022-09-16T18:39:08.510Z,98726.06
2022-09-16T18:41:38.403Z,98718.47
2022-09-16T18:44:11.885Z,98700.78
2022-09-16T18:46:39.874Z,98695.75
2022-09-16T18:49:12.472Z,98697.41
2022-09-16T18:51:42.991Z,98709.19
2022-09-16T18:54:16.358Z,98726.06
2022-09-16T18:56:44.389Z,98736.19
2022-09-16T18:59:23.615Z,98734.47
2022-09-16T19:01:53.677Z,98734.50
2022-09-16T19:04:25.408Z,98737.88
2022-09-16T19:06:55.490Z,98732.06
2022-09-16T19:09:25.259Z,98724.56
2022-09-16T19:11:54.576Z,98708.00
2022-09-16T19:14:24.742Z,98731.41
2022-09-16T19:16:53.211Z,98727.19
2022-09-16T19:19:23.325Z,98721.31
2022-09-16T19:21:51.378Z,98718.84
2022-09-16T19:24:21.441Z,98717.97
2022-09-16T19:26:50.917Z,98723.03
2022-09-16T19:29:19.610Z,98729.72
2022-09-16T19:31:50.046Z,98739.81
2022-09-16T19:34:18.469Z,98729.72
2022-09-16T19:36:48.057Z,98712.03
2022-09-16T19:39:15.919Z,98692.72
2022-09-16T19:41:43.812Z,98693.59
2022-09-16T19:44:14.241Z,98700.34
2022-09-16T19:46:43.325Z,98711.28
2022-09-16T19:49:16.592Z,98707.94
2022-09-16T19:51:44.848Z,98704.63
2022-09-16T19:54:14.521Z,98709.78
2022-09-16T19:56:45.019Z,98715.75
2022-09-16T19:59:16.497Z,98703.19
2022-09-16T20:01:44.442Z,98707.44
2022-09-16T20:04:12.292Z,98715.00
2022-09-16T20:06:42.020Z,98717.50
2022-09-16T20:09:12.604Z,98708.28
2022-09-16T20:11:44.013Z,98708.41
2022-09-16T20:14:15.533Z,98715.16
2022-09-16T20:16:43.664Z,98716.88
2022-09-16T20:19:13.674Z,98718.63
2022-09-16T20:21:42.311Z,98717.81
2022-09-16T20:24:15.846Z,98717.09
2022-09-16T20:26:45.219Z,98711.19
2022-09-16T20:29:13.030Z,98718.75
2022-09-16T20:31:40.895Z,98723.81
2022-09-16T20:34:08.724Z,98726.34
2022-09-16T20:36:39.010Z,98728.81
2022-09-16T20:39:08.850Z,98735.56
2022-09-16T20:41:38.280Z,98737.25
2022-09-16T20:44:07.923Z,98745.66
2022-09-16T20:46:38.703Z,98728.94
2022-09-16T20:49:10.411Z,98732.28
2022-09-16T20:51:38.458Z,98713.94
2022-09-16T20:54:08.969Z,98727.28
2022-09-16T20:56:39.211Z,98732.28
2022-09-16T20:59:09.786Z,98733.13
2022-09-16T21:01:39.091Z,98736.53
2022-09-16T21:04:08.744Z,98740.72
2022-09-16T21:06:37.036Z,98743.22
2022-09-16T21:09:07.423Z,98749.06
2022-09-16T21:11:36.121Z,98753.22
2022-09-16T21:14:07.591Z,98751.53
2022-09-16T21:16:38.425Z,98761.66
2022-09-16T21:19:09.444Z,98764.25
2022-09-16T21:21:39.119Z,98761.78
2022-09-16T21:24:08.514Z,98760.13
2022-09-16T21:26:38.065Z,98756.78
2022-09-16T21:29:09.857Z,98771.06
2022-09-16T21:31:40.802Z,98751.75
2022-09-16T21:34:12.881Z,98763.44
2022-09-16T21:36:40.928Z,98760.88
2022-09-16T21:39:09.187Z,98774.34
2022-09-16T21:41:37.746Z,98781.09
2022-09-16T21:44:05.716Z,98775.16
2022-09-16T21:46:39.519Z,98770.97
2022-09-16T21:49:14.357Z,98776.13
2022-09-16T21:51:42.168Z,98797.84
2022-09-16T21:54:11.076Z,98786.09
2022-09-16T21:56:40.124Z,98781.09
2022-09-16T21:59:08.595Z,98782.78
2022-09-16T22:01:37.624Z,98780.34
2022-09-16T22:04:07.960Z,98774.50
2022-09-16T22:06:37.183Z,98771.22
2022-09-16T22:09:07.820Z,98767.91
2022-09-16T22:11:37.606Z,98764.59
2022-09-16T22:14:06.233Z,98766.34
2022-09-16T22:16:37.206Z,98778.19
2022-09-16T22:19:08.108Z,98788.28
2022-09-16T22:21:39.241Z,98791.66
2022-09-16T22:24:07.598Z,98795.00
2022-09-16T22:26:35.804Z,98773.22
2022-09-16T22:29:03.711Z,98779.06
2022-09-16T22:31:33.884Z,98789.97
2022-09-16T22:34:02.715Z,98795.03
2022-09-16T22:36:32.254Z,98811.84
2022-09-16T22:39:04.508Z,98813.53
2022-09-16T22:41:33.126Z,98826.97
2022-09-16T22:44:00.993Z,98819.41
2022-09-16T22:46:30.594Z,98824.47
2022-09-16T22:49:00.113Z,98820.28
2022-09-16T22:51:28.882Z,98810.22
2022-09-16T22:53:57.301Z,98818.63
2022-09-16T22:56:29.341Z,98818.63
2022-09-16T22:58:57.963Z,98808.53
2022-09-16T23:01:27.657Z,98798.50
2022-09-16T23:03:57.268Z,98791.78
2022-09-16T23:06:26.434Z,98792.63
2022-09-16T23:09:14.119Z,98795.09
2022-09-16T23:11:43.536Z,98780.03
2022-09-16T23:14:14.705Z,98805.16
2022-09-16T23:16:42.649Z,98804.34
2022-09-16T23:19:12.197Z,98801.03
2022-09-16T23:21:40.588Z,98792.69
2022-09-16T23:24:10.511Z,98781.78
2022-09-16T23:26:39.336Z,98780.09
2022-09-16T23:29:10.975Z,98777.56
2022-09-16T23:31:41.278Z,98778.41
2022-09-16T23:34:12.220Z,98775.13
2022-09-16T23:36:41.548Z,98778.50
2022-09-16T23:39:10.173Z,98781.78
2022-09-16T23:41:38.414Z,98776.75
2022-09-16T23:44:06.345Z,98776.75
2022-09-16T23:46:36.031Z,98780.13
2022-09-16T23:49:04.653Z,98779.31
2022-09-16T23:51:32.979Z,98791.91
2022-09-16T23:54:01.278Z,98790.28
2022-09-16T23:56:29.133Z,98780.28
2022-09-16T23:59:00.580Z,98776.94
